메인 페이지
METAR-TAF:

METAR-TAF

공항 :

청두 솽류 국제공항

청두, 중국

위도: 30-40N, 경도: 104-01E, 고도: 508m

현재 날씨관측

예보는 41분 전, 17:00시(UTC)에 발표되었습니다.
6kt남남동풍과 남서풍을 오가는
온도 26°C
습도 65%
기압 1010 hPa
시정 10km 이상
고도 5000ft 상공 구름 보통

METAR: ZUUU 311700Z 19003MPS 150V220 9999 SCT050 26/19 Q1010 NOSIG

시각: 01:41 (17:41 UTC)

예보

예보는 2 시간 38분 전, 15:03시(UTC)에 발표되었습니다.
예보 대상 시간: 31일 18시부터 01일 18시까지 (UTC)
남남서6kt
시정: 5000m
고도 4000ft 상공 구름 보통
박무
일시적
01일 14시부터 01일 18시까지 (UTC)
고도 3000ft 상공 구름 조금, 적란운.
고도 4000ft 상공 구름 보통
뇌우, 약한비

TAF: ZUUU 311503Z 3118/0118 20003MPS 5000 BR SCT040 TX31/0107Z TN22/3122Z TEMPO 0114/0118 -TSRA FEW030CB SCT040

4,000개 이상의 공항 관측 자료 및 예보 (METAR 및 TAF 보고).

지도상에서 검색 가능한 기상관측소가 노란 점과 빨간 점으로 표시되어 있습니다.

기상관측소 명을 보려면 표시 위로 마우스를 이동하세요.

날씨 관측과 예보를 보려면 클릭하세요.

지도 변경 : 확대하려면 엑스 표시가 있는 녹색 버튼, 축소하려면 빼기 표시가 있는 녹색 버튼, 다음 페이지의 지도를 보려면 녹색 화살표를 클릭하세요.


METAR-TAF: